Time;durP1;ratioP1;P1;durP2;ratioP2;P2;SDS_P1;SDS_P2;PMS_P1;PMS_P2;Temp;Humidity;BMP_temperature;BMP_pressure;BME280_temperature;BME280_humidity;BME280_pressure;Samples;Min_cycle;Max_cycle;Signal;HPM_P1;HPM_P2
2022/11/19 00:02:14;;;;;;;25.53;13.70;;;;;;;;;;5030199;28;20032;-69
2022/11/19 00:04:39;;;;;;;27.30;12.18;;;;;;;;;;5030237;28;20260;-69
2022/11/19 00:07:04;;;;;;;26.23;13.50;;;;;;;;;;5023422;28;20018;-70
2022/11/19 00:09:30;;;;;;;21.52;10.18;;;;;;;;;;5017325;28;20265;-70
2022/11/19 00:14:39;;;;;;;26.08;13.27;;;;;;;;;;5029980;28;20252;-70
2022/11/19 00:17:04;;;;;;;25.45;14.27;;;;;;;;;;5027995;28;20021;-71
2022/11/19 00:19:29;;;;;;;27.48;14.57;;;;;;;;;;5029803;28;20010;-71
2022/11/19 00:21:55;;;;;;;27.17;13.50;;;;;;;;;;5019334;28;20026;-71
2022/11/19 00:24:21;;;;;;;25.10;14.35;;;;;;;;;;5020243;28;20283;-71
2022/11/19 00:26:46;;;;;;;26.15;13.90;;;;;;;;;;5016431;28;20022;-71
2022/11/19 00:29:11;;;;;;;28.77;13.93;;;;;;;;;;5028135;28;20036;-71
2022/11/19 00:31:37;;;;;;;28.13;15.43;;;;;;;;;;5033333;28;20025;-71
2022/11/19 00:34:02;;;;;;;28.87;15.20;;;;;;;;;;5033391;28;20466;-71
2022/11/19 00:36:27;;;;;;;29.77;16.33;;;;;;;;;;5033188;28;20252;-71
2022/11/19 00:38:53;;;;;;;25.90;13.63;;;;;;;;;;5030075;28;20097;-71
2022/11/19 00:41:18;;;;;;;28.27;15.05;;;;;;;;;;5016599;28;20026;-71
2022/11/19 00:43:46;;;;;;;27.67;14.25;;;;;;;;;;5022932;28;20092;-71
2022/11/19 00:46:21;;;;;;;28.60;14.48;;;;;;;;;;5032845;28;20068;-71
2022/11/19 00:48:47;;;;;;;25.40;14.00;;;;;;;;;;5033125;28;20025;-71
2022/11/19 00:51:13;;;;;;;31.13;15.98;;;;;;;;;;5032883;28;20032;-71
2022/11/19 00:53:38;;;;;;;29.30;14.75;;;;;;;;;;5028106;28;20049;-71
2022/11/19 00:56:05;;;;;;;27.45;12.88;;;;;;;;;;5022099;28;20092;-70
2022/11/19 00:58:30;;;;;;;26.08;13.20;;;;;;;;;;5030196;28;20362;-70
2022/11/19 01:00:56;;;;;;;25.83;14.40;;;;;;;;;;5033509;28;20073;-68
2022/11/19 01:03:21;;;;;;;32.20;14.90;;;;;;;;;;5033138;28;20116;-70
2022/11/19 01:05:47;;;;;;;25.30;13.60;;;;;;;;;;5032887;28;20028;-70
2022/11/19 01:08:12;;;;;;;29.08;14.43;;;;;;;;;;5027435;28;20033;-70
2022/11/19 01:10:37;;;;;;;32.70;14.43;;;;;;;;;;5022113;28;20459;-70
2022/11/19 01:15:47;;;;;;;28.48;13.55;;;;;;;;;;5032522;28;20108;-69
2022/11/19 01:18:12;;;;;;;28.30;14.32;;;;;;;;;;5032353;28;20096;-69
2022/11/19 01:20:37;;;;;;;28.80;14.48;;;;;;;;;;5032615;28;20112;-69
2022/11/19 01:23:02;;;;;;;28.48;14.63;;;;;;;;;;5024828;28;20013;-69
2022/11/19 01:25:27;;;;;;;29.50;13.07;;;;;;;;;;5020683;28;20092;-69
2022/11/19 01:27:53;;;;;;;25.27;12.87;;;;;;;;;;5027756;28;20244;-69
2022/11/19 01:30:18;;;;;;;34.05;12.70;;;;;;;;;;5031994;28;20418;-69
2022/11/19 01:32:43;;;;;;;28.55;14.73;;;;;;;;;;5032160;28;20489;-69
2022/11/19 01:35:08;;;;;;;28.60;12.82;;;;;;;;;;5031911;28;20017;-69
2022/11/19 01:37:33;;;;;;;30.73;14.68;;;;;;;;;;5031987;28;20025;-69
2022/11/19 01:39:59;;;;;;;28.43;14.93;;;;;;;;;;5020144;28;20036;-70
2022/11/19 01:45:17;;;;;;;27.00;14.30;;;;;;;;;;5031793;28;20024;-70
2022/11/19 01:47:43;;;;;;;37.10;15.82;;;;;;;;;;5031762;28;20028;-70
2022/11/19 01:50:08;;;;;;;26.75;13.77;;;;;;;;;;5030424;28;20026;-70
2022/11/19 01:52:33;;;;;;;30.20;14.65;;;;;;;;;;5027276;28;20382;-70
2022/11/19 01:55:00;;;;;;;24.57;13.20;;;;;;;;;;5021387;28;20017;-70
2022/11/19 01:57:25;;;;;;;28.60;13.55;;;;;;;;;;5023632;28;20276;-69
2022/11/19 01:59:51;;;;;;;23.77;12.80;;;;;;;;;;5031567;28;20429;-69
2022/11/19 02:02:18;;;;;;;30.20;11.95;;;;;;;;;;5031843;28;20027;-69
2022/11/19 02:04:44;;;;;;;23.67;11.63;;;;;;;;;;5031504;28;20018;-69
2022/11/19 02:07:10;;;;;;;26.73;12.88;;;;;;;;;;5030571;28;20018;-69
2022/11/19 02:09:36;;;;;;;24.15;13.35;;;;;;;;;;5014879;28;20028;-69
2022/11/19 02:12:01;;;;;;;23.52;10.35;;;;;;;;;;5016163;28;20014;-69
2022/11/19 02:14:32;;;;;;;28.83;12.07;;;;;;;;;;5031395;28;20097;-69
2022/11/19 02:17:15;;;;;;;23.63;11.10;;;;;;;;;;5031312;28;20644;-69
2022/11/19 02:19:47;;;;;;;24.45;13.57;;;;;;;;;;5031668;28;20056;-69
2022/11/19 02:22:31;;;;;;;27.02;13.23;;;;;;;;;;5028635;28;20049;-69
2022/11/19 02:25:03;;;;;;;21.00;11.85;;;;;;;;;;5007320;28;20013;-68
2022/11/19 02:27:35;;;;;;;27.05;11.35;;;;;;;;;;5024505;28;20029;-69
2022/11/19 02:30:07;;;;;;;20.63;11.27;;;;;;;;;;5031048;28;20437;-68
2022/11/19 02:32:58;;;;;;;24.38;12.35;;;;;;;;;;5030982;28;20424;-68
2022/11/19 02:35:36;;;;;;;26.05;10.43;;;;;;;;;;5007301;28;20029;-68
2022/11/19 02:38:11;;;;;;;18.55;9.98;;;;;;;;;;5019188;28;20383;-68
2022/11/19 02:40:47;;;;;;;16.55;8.52;;;;;;;;;;5012174;28;20028;-69
2022/11/19 02:43:15;;;;;;;17.48;8.88;;;;;;;;;;5031100;28;20021;-68
2022/11/19 02:45:46;;;;;;;18.58;8.52;;;;;;;;;;5030510;28;20021;-68
2022/11/19 02:48:14;;;;;;;17.38;8.07;;;;;;;;;;5030813;28;20044;-68
2022/11/19 02:50:45;;;;;;;13.30;7.85;;;;;;;;;;5029865;28;20021;-68
2022/11/19 02:53:10;;;;;;;12.38;7.40;;;;;;;;;;5015224;28;20528;-68
2022/11/19 02:55:35;;;;;;;14.52;7.60;;;;;;;;;;5015040;28;20030;-69
2022/11/19 03:04:28;;;;;;;16.02;6.53;;;;;;;;;;5024090;28;20021;-68
2022/11/19 03:06:25;;;;;;;16.05;7.05;;;;;;;;;;5024317;28;20033;-68
2022/11/19 03:08:51;;;;;;;15.27;7.07;;;;;;;;;;5006596;28;20091;-69
2022/11/19 03:11:27;;;;;;;15.20;7.30;;;;;;;;;;5026121;28;20421;-68
2022/11/19 03:16:49;;;;;;;14.27;6.80;;;;;;;;;;5030232;28;20028;-68
2022/11/19 03:19:17;;;;;;;11.98;6.82;;;;;;;;;;5030701;28;20049;-68
2022/11/19 03:22:01;;;;;;;12.05;5.63;;;;;;;;;;5020448;28;20372;-69
2022/11/19 03:24:29;;;;;;;10.18;5.97;;;;;;;;;;5010292;28;20112;-68
2022/11/19 03:27:08;;;;;;;13.70;5.45;;;;;;;;;;5030202;28;20108;-69
2022/11/19 03:29:35;;;;;;;9.05;4.88;;;;;;;;;;5030097;28;20021;-68
2022/11/19 03:32:04;;;;;;;9.10;4.72;;;;;;;;;;5030218;28;20060;-68
2022/11/19 03:34:30;;;;;;;8.40;4.82;;;;;;;;;;5027596;28;20041;-68
2022/11/19 03:36:57;;;;;;;4.60;2.53;;;;;;;;;;5013092;28;20052;-68
2022/11/19 03:39:22;;;;;;;4.40;2.00;;;;;;;;;;5017245;28;20021;-68
2022/11/19 03:41:48;;;;;;;3.05;1.52;;;;;;;;;;5030038;28;20033;-68
2022/11/19 03:44:52;;;;;;;3.40;1.40;;;;;;;;;;5030233;28;20391;-68
2022/11/19 03:47:19;;;;;;;2.13;1.60;;;;;;;;;;4987863;28;20034;-68
2022/11/19 03:49:46;;;;;;;5.93;1.58;;;;;;;;;;4987015;28;20058;-68
2022/11/19 03:52:16;;;;;;;2.53;1.70;;;;;;;;;;4990633;28;20112;-68
2022/11/19 03:54:41;;;;;;;2.35;1.40;;;;;;;;;;5010028;28;20402;-68
2022/11/19 03:57:08;;;;;;;3.67;1.90;;;;;;;;;;5023739;28;20033;-68
2022/11/19 03:59:33;;;;;;;7.57;1.77;;;;;;;;;;5030091;28;20021;-68
2022/11/19 04:02:00;;;;;;;2.90;1.83;;;;;;;;;;5031953;28;20017;-68
2022/11/19 04:04:36;;;;;;;4.50;1.50;;;;;;;;;;5028710;28;20056;-68
2022/11/19 04:07:07;;;;;;;2.92;1.85;;;;;;;;;;5007072;28;20017;-68
2022/11/19 04:09:33;;;;;;;2.13;1.70;;;;;;;;;;5014348;28;20046;-68
2022/11/19 04:11:58;;;;;;;2.85;1.15;;;;;;;;;;5013888;28;20055;-68
2022/11/19 04:14:24;;;;;;;2.08;1.20;;;;;;;;;;5030196;28;20045;-67
2022/11/19 04:16:49;;;;;;;1.40;1.08;;;;;;;;;;5033769;28;20465;-68
2022/11/19 04:19:14;;;;;;;3.05;0.98;;;;;;;;;;5034096;28;20473;-68
2022/11/19 04:21:39;;;;;;;2.47;1.50;;;;;;;;;;5023259;28;20026;-68
2022/11/19 04:24:05;;;;;;;2.10;1.17;;;;;;;;;;5013623;28;20063;-68
2022/11/19 04:26:30;;;;;;;0.82;0.70;;;;;;;;;;5030238;28;20029;-68
2022/11/19 04:28:55;;;;;;;2.15;1.30;;;;;;;;;;5033332;28;20082;-68
2022/11/19 04:31:21;;;;;;;7.28;1.60;;;;;;;;;;5032103;28;20025;-68
2022/11/19 04:33:46;;;;;;;2.25;1.55;;;;;;;;;;5033209;28;20014;-68
2022/11/19 04:36:11;;;;;;;2.60;1.48;;;;;;;;;;5025649;28;20387;-68
2022/11/19 04:38:36;;;;;;;2.80;1.20;;;;;;;;;;5012892;28;20022;-68
2022/11/19 04:41:01;;;;;;;4.63;1.70;;;;;;;;;;5026631;28;20336;-68
2022/11/19 04:43:27;;;;;;;5.32;0.82;;;;;;;;;;5032930;28;20108;-68
2022/11/19 04:45:52;;;;;;;3.27;1.40;;;;;;;;;;5032548;28;20025;-68
2022/11/19 04:48:17;;;;;;;4.25;1.23;;;;;;;;;;5032205;28;20261;-68
2022/11/19 04:50:42;;;;;;;4.25;1.55;;;;;;;;;;5022662;28;20046;-68
2022/11/19 04:53:07;;;;;;;2.20;0.73;;;;;;;;;;5012898;28;20021;-68
2022/11/19 04:55:32;;;;;;;1.98;1.27;;;;;;;;;;5030107;28;20259;-69
2022/11/19 04:57:58;;;;;;;1.92;1.10;;;;;;;;;;5038608;22;20050;-68
2022/11/19 05:00:23;;;;;;;2.27;1.20;;;;;;;;;;5013070;28;20053;-68
2022/11/19 05:02:48;;;;;;;3.03;1.50;;;;;;;;;;5013248;28;20744;-68
2022/11/19 05:05:13;;;;;;;2.72;1.65;;;;;;;;;;5019204;28;20029;-68
2022/11/19 05:07:38;;;;;;;2.17;1.58;;;;;;;;;;5032007;28;20030;-68
2022/11/19 05:10:04;;;;;;;2.63;1.43;;;;;;;;;;5032815;28;20029;-68
2022/11/19 05:12:29;;;;;;;3.75;1.65;;;;;;;;;;5032306;28;20621;-68
2022/11/19 05:14:55;;;;;;;3.65;2.05;;;;;;;;;;5032587;28;20024;-68
2022/11/19 05:17:20;;;;;;;6.13;2.35;;;;;;;;;;5032433;28;20485;-68
2022/11/19 05:19:45;;;;;;;4.80;2.70;;;;;;;;;;5030983;28;20152;-68
2022/11/19 05:22:10;;;;;;;5.40;2.50;;;;;;;;;;5031944;28;20100;-68
2022/11/19 05:24:36;;;;;;;7.68;2.42;;;;;;;;;;5032118;28;20260;-68
2022/11/19 05:27:01;;;;;;;4.60;2.90;;;;;;;;;;5032145;28;20063;-68
2022/11/19 05:29:26;;;;;;;3.53;2.10;;;;;;;;;;5032017;28;20256;-68
2022/11/19 05:31:51;;;;;;;3.97;2.28;;;;;;;;;;5031091;28;20481;-68
2022/11/19 05:34:17;;;;;;;5.80;3.15;;;;;;;;;;5032114;28;20032;-68
2022/11/19 05:36:42;;;;;;;3.97;2.13;;;;;;;;;;5031665;28;20022;-68
2022/11/19 05:39:07;;;;;;;3.87;2.23;;;;;;;;;;5032013;28;20253;-68
2022/11/19 05:41:32;;;;;;;6.55;3.47;;;;;;;;;;5031909;28;20339;-68
2022/11/19 05:43:57;;;;;;;2.60;1.77;;;;;;;;;;5032480;28;20104;-68
2022/11/19 05:46:22;;;;;;;6.97;3.63;;;;;;;;;;5030011;28;20692;-68
2022/11/19 05:48:48;;;;;;;10.50;5.97;;;;;;;;;;5030580;28;20284;-68
2022/11/19 05:51:14;;;;;;;11.93;5.53;;;;;;;;;;5031606;28;20060;-68
2022/11/19 05:53:39;;;;;;;12.80;7.03;;;;;;;;;;5031897;28;20026;-68
2022/11/19 05:56:05;;;;;;;11.25;6.53;;;;;;;;;;5031558;28;20025;-68
2022/11/19 05:58:30;;;;;;;12.07;6.85;;;;;;;;;;5031327;28;20025;-68
2022/11/19 06:00:57;;;;;;;10.60;6.55;;;;;;;;;;5031838;28;20070;-68
2022/11/19 06:03:22;;;;;;;10.95;6.22;;;;;;;;;;5030722;28;20469;-68
2022/11/19 06:05:47;;;;;;;10.85;5.72;;;;;;;;;;5031571;28;20043;-68
2022/11/19 06:08:12;;;;;;;12.63;6.80;;;;;;;;;;5031425;28;20026;-68
2022/11/19 06:10:38;;;;;;;14.43;7.70;;;;;;;;;;5031175;28;20769;-68
2022/11/19 06:13:03;;;;;;;12.83;7.03;;;;;;;;;;5031649;28;20289;-68
2022/11/19 06:15:28;;;;;;;13.50;7.37;;;;;;;;;;5031621;28;20256;-68
2022/11/19 06:17:54;;;;;;;14.80;6.97;;;;;;;;;;5030351;28;20692;-68
2022/11/19 06:20:19;;;;;;;13.52;7.43;;;;;;;;;;5031383;28;20021;-67
2022/11/19 06:22:44;;;;;;;12.03;6.57;;;;;;;;;;5031301;28;20461;-68
2022/11/19 06:25:10;;;;;;;11.63;5.88;;;;;;;;;;5031428;28;20252;-68
2022/11/19 06:27:35;;;;;;;14.52;6.55;;;;;;;;;;5030628;28;20056;-68
2022/11/19 06:30:00;;;;;;;16.73;7.53;;;;;;;;;;5031619;28;20044;-68
2022/11/19 06:32:25;;;;;;;16.67;8.15;;;;;;;;;;5030142;28;20018;-68
2022/11/19 06:34:51;;;;;;;11.50;6.45;;;;;;;;;;5030897;28;20021;-68
2022/11/19 06:37:16;;;;;;;17.80;8.13;;;;;;;;;;5030818;28;20021;-68
2022/11/19 06:39:41;;;;;;;18.30;8.45;;;;;;;;;;5030670;28;20060;-68
2022/11/19 06:44:50;;;;;;;18.80;8.88;;;;;;;;;;5031039;28;20033;-68
2022/11/19 06:47:15;;;;;;;16.30;8.80;;;;;;;;;;5029500;28;20030;-68
2022/11/19 06:49:40;;;;;;;18.10;9.85;;;;;;;;;;5030650;28;20282;-68
2022/11/19 06:52:06;;;;;;;18.95;9.32;;;;;;;;;;5030768;28;20026;-68
2022/11/19 06:54:31;;;;;;;22.83;10.32;;;;;;;;;;5030535;28;20092;-68
2022/11/19 06:56:56;;;;;;;27.27;10.87;;;;;;;;;;5030490;28;20029;-68
2022/11/19 06:59:21;;;;;;;20.50;10.83;;;;;;;;;;5030790;28;20257;-68
2022/11/19 07:01:46;;;;;;;12.13;6.13;;;;;;;;;;5029301;28;20378;-68
2022/11/19 07:04:12;;;;;;;17.77;9.20;;;;;;;;;;5029990;28;20272;-68
2022/11/19 07:06:37;;;;;;;25.23;11.13;;;;;;;;;;5029948;28;20302;-68
2022/11/19 07:09:02;;;;;;;9.55;4.95;;;;;;;;;;5030690;28;20390;-68
2022/11/19 07:11:27;;;;;;;13.90;7.22;;;;;;;;;;5030248;28;20109;-69
2022/11/19 07:13:56;;;;;;;22.33;12.35;;;;;;;;;;5030556;28;20020;-69
2022/11/19 07:16:21;;;;;;;23.77;11.40;;;;;;;;;;5030264;28;20445;-69
2022/11/19 07:18:46;;;;;;;27.73;12.13;;;;;;;;;;5029514;28;20016;-69
2022/11/19 07:21:11;;;;;;;16.93;7.37;;;;;;;;;;5030692;28;20458;-69
2022/11/19 07:23:37;;;;;;;22.92;10.75;;;;;;;;;;5030342;28;20253;-68
2022/11/19 07:26:02;;;;;;;10.60;4.38;;;;;;;;;;5030347;28;20021;-68
2022/11/19 07:28:27;;;;;;;23.17;10.90;;;;;;;;;;5029988;28;20024;-68
2022/11/19 07:30:52;;;;;;;24.27;10.60;;;;;;;;;;5030521;28;20075;-69
2022/11/19 07:33:17;;;;;;;22.83;10.53;;;;;;;;;;5028678;28;20709;-69
2022/11/19 07:35:43;;;;;;;25.33;13.10;;;;;;;;;;5030394;28;20260;-69
2022/11/19 07:38:08;;;;;;;25.50;12.87;;;;;;;;;;5036456;28;20014;-69
2022/11/19 07:40:33;;;;;;;27.67;13.80;;;;;;;;;;5036571;28;20798;-69
2022/11/19 07:42:58;;;;;;;23.37;11.50;;;;;;;;;;5036996;28;20101;-69
2022/11/19 07:45:23;;;;;;;23.57;12.10;;;;;;;;;;5036800;28;20264;-69
2022/11/19 07:47:48;;;;;;;26.88;14.18;;;;;;;;;;5035253;28;20311;-69
2022/11/19 07:50:14;;;;;;;26.52;13.82;;;;;;;;;;5036660;28;20025;-69
2022/11/19 07:52:39;;;;;;;26.75;15.13;;;;;;;;;;5036460;28;20038;-69
2022/11/19 07:55:05;;;;;;;27.27;13.90;;;;;;;;;;5036771;28;20018;-69
2022/11/19 07:57:30;;;;;;;22.35;10.15;;;;;;;;;;5036199;28;20026;-69
2022/11/19 07:59:55;;;;;;;28.35;14.52;;;;;;;;;;5036802;28;20047;-69
2022/11/19 08:02:20;;;;;;;29.38;11.25;;;;;;;;;;5035482;28;20025;-69
2022/11/19 08:04:45;;;;;;;24.37;11.50;;;;;;;;;;5036219;28;20044;-68
2022/11/19 08:07:10;;;;;;;28.70;15.03;;;;;;;;;;5035902;28;20339;-68
2022/11/19 08:09:36;;;;;;;29.90;14.73;;;;;;;;;;5036306;28;20252;-68
2022/11/19 08:12:01;;;;;;;29.67;14.48;;;;;;;;;;5036655;28;20319;-68
2022/11/19 08:14:26;;;;;;;28.13;13.90;;;;;;;;;;5036283;28;20044;-68
2022/11/19 08:19:36;;;;;;;27.60;14.07;;;;;;;;;;5035568;28;20028;-68
2022/11/19 08:22:01;;;;;;;23.13;12.38;;;;;;;;;;5036840;28;20393;-68
2022/11/19 08:24:26;;;;;;;34.22;15.60;;;;;;;;;;5036317;28;20021;-68
2022/11/19 08:26:51;;;;;;;30.10;16.00;;;;;;;;;;5035707;28;20099;-68
2022/11/19 08:29:18;;;;;;;32.55;13.68;;;;;;;;;;5035974;28;20379;-68
2022/11/19 08:31:44;;;;;;;27.92;11.10;;;;;;;;;;5036325;28;20057;-68
2022/11/19 08:34:10;;;;;;;23.98;12.27;;;;;;;;;;5035280;28;20477;-68
2022/11/19 08:36:35;;;;;;;24.70;10.13;;;;;;;;;;5035281;28;20029;-68
2022/11/19 08:39:01;;;;;;;30.30;13.83;;;;;;;;;;5035796;28;20095;-68
2022/11/19 08:44:10;;;;;;;27.83;12.88;;;;;;;;;;5036306;28;20035;-68
2022/11/19 08:46:36;;;;;;;30.05;12.88;;;;;;;;;;5036009;28;20021;-69
2022/11/19 08:49:01;;;;;;;26.40;14.00;;;;;;;;;;5032424;28;20445;-68
2022/11/19 08:51:26;;;;;;;35.50;15.23;;;;;;;;;;5031138;28;20017;-68
2022/11/19 08:53:52;;;;;;;25.00;12.75;;;;;;;;;;5033287;28;20379;-68
2022/11/19 08:56:17;;;;;;;28.48;13.82;;;;;;;;;;5032004;28;20060;-68
2022/11/19 08:58:42;;;;;;;24.15;12.05;;;;;;;;;;5032435;28;20381;-68
2022/11/19 09:01:09;;;;;;;29.75;12.50;;;;;;;;;;5033027;28;20056;-68
2022/11/19 09:03:34;;;;;;;22.20;10.18;;;;;;;;;;5032887;28;20017;-68
2022/11/19 09:05:59;;;;;;;25.58;12.70;;;;;;;;;;5032832;28;20677;-68
2022/11/19 09:08:24;;;;;;;25.88;13.45;;;;;;;;;;5031389;28;20208;-68
2022/11/19 09:10:50;;;;;;;24.42;11.85;;;;;;;;;;5032691;28;20159;-68
2022/11/19 09:13:15;;;;;;;23.55;9.07;;;;;;;;;;5032856;28;20072;-68
2022/11/19 09:15:40;;;;;;;21.83;11.43;;;;;;;;;;5032304;28;20040;-68
2022/11/19 09:18:05;;;;;;;15.20;6.28;;;;;;;;;;5032539;28;20036;-68
2022/11/19 09:20:31;;;;;;;27.27;14.32;;;;;;;;;;5032373;28;20025;-68
2022/11/19 09:22:56;;;;;;;23.83;12.02;;;;;;;;;;5029987;28;20492;-68
2022/11/19 09:25:21;;;;;;;14.85;6.40;;;;;;;;;;5030944;28;20030;-68
2022/11/19 09:27:46;;;;;;;21.98;9.23;;;;;;;;;;5031749;28;20067;-68
2022/11/19 09:30:11;;;;;;;25.70;10.70;;;;;;;;;;5032381;28;20026;-69
2022/11/19 09:32:37;;;;;;;8.82;4.75;;;;;;;;;;5032239;28;20036;-68
2022/11/19 09:35:02;;;;;;;23.25;10.10;;;;;;;;;;5032243;28;20064;-68
2022/11/19 09:37:30;;;;;;;21.25;11.77;;;;;;;;;;5030669;28;20071;-68
2022/11/19 09:39:55;;;;;;;29.80;11.05;;;;;;;;;;5032014;28;20076;-68
2022/11/19 09:42:26;;;;;;;8.63;4.40;;;;;;;;;;5032164;28;20021;-68
2022/11/19 09:45:10;;;;;;;22.15;10.60;;;;;;;;;;5032199;28;20033;-69
2022/11/19 09:47:45;;;;;;;21.83;8.15;;;;;;;;;;5031299;28;20527;-68
2022/11/19 09:50:10;;;;;;;20.55;5.75;;;;;;;;;;5031756;28;20108;-68
2022/11/19 09:52:38;;;;;;;17.38;8.73;;;;;;;;;;5029775;28;20105;-68
2022/11/19 09:55:03;;;;;;;20.58;9.93;;;;;;;;;;5031660;28;20279;-69
2022/11/19 09:57:37;;;;;;;17.30;9.32;;;;;;;;;;5029698;28;20025;-69
2022/11/19 10:00:03;;;;;;;19.05;10.63;;;;;;;;;;5031377;28;20124;-68
2022/11/19 10:02:29;;;;;;;15.07;6.10;;;;;;;;;;5031554;28;20112;-68
2022/11/19 10:04:54;;;;;;;14.40;6.85;;;;;;;;;;5030437;28;20113;-68
2022/11/19 10:07:43;;;;;;;14.70;6.35;;;;;;;;;;5031194;28;20029;-68
2022/11/19 10:10:23;;;;;;;17.38;8.38;;;;;;;;;;5026231;28;20469;-69
2022/11/19 10:13:10;;;;;;;4.68;2.85;;;;;;;;;;5030455;28;20374;-69
2022/11/19 10:15:50;;;;;;;19.58;9.25;;;;;;;;;;5031101;28;20046;-68
2022/11/19 10:18:25;;;;;;;19.95;9.70;;;;;;;;;;5030019;28;20025;-68
2022/11/19 10:21:09;;;;;;;19.92;9.52;;;;;;;;;;5029855;28;20029;-69
2022/11/19 10:23:47;;;;;;;19.17;7.13;;;;;;;;;;5031296;28;20026;-68
2022/11/19 10:26:14;;;;;;;19.83;9.45;;;;;;;;;;5031060;28;20029;-68
2022/11/19 10:28:41;;;;;;;20.30;9.63;;;;;;;;;;5030878;28;20089;-68
2022/11/19 10:31:10;;;;;;;19.17;10.68;;;;;;;;;;5028994;28;20473;-68
2022/11/19 10:33:35;;;;;;;19.15;9.88;;;;;;;;;;5031296;28;20034;-68
2022/11/19 10:36:06;;;;;;;21.30;10.30;;;;;;;;;;5031938;28;20017;-68
2022/11/19 10:38:33;;;;;;;17.20;9.20;;;;;;;;;;5030751;28;20241;-68
2022/11/19 10:41:00;;;;;;;17.60;9.68;;;;;;;;;;5030974;28;20064;-68
2022/11/19 10:43:31;;;;;;;20.63;8.32;;;;;;;;;;5031069;28;20461;-68
2022/11/19 10:45:57;;;;;;;25.52;10.38;;;;;;;;;;5030678;28;20484;-68
2022/11/19 10:48:23;;;;;;;20.98;9.30;;;;;;;;;;5029510;28;20057;-68
2022/11/19 10:50:49;;;;;;;17.05;8.52;;;;;;;;;;5030385;28;20048;-68
2022/11/19 10:53:28;;;;;;;17.77;9.23;;;;;;;;;;5030890;28;20403;-68
2022/11/19 10:55:57;;;;;;;16.27;6.45;;;;;;;;;;5030452;28;20014;-68
2022/11/19 10:58:22;;;;;;;17.27;8.87;;;;;;;;;;5041240;22;20490;-69
2022/11/19 11:00:48;;;;;;;21.85;8.45;;;;;;;;;;5020857;28;20021;-69
2022/11/19 11:03:23;;;;;;;13.80;7.53;;;;;;;;;;5004539;28;20018;-68
2022/11/19 11:05:56;;;;;;;18.52;8.88;;;;;;;;;;5018291;28;20031;-69
2022/11/19 11:08:22;;;;;;;14.45;6.90;;;;;;;;;;5010008;28;20022;-69
2022/11/19 11:10:47;;;;;;;18.42;8.65;;;;;;;;;;5010322;28;20105;-66
2022/11/19 11:16:16;;;;;;;9.02;3.83;;;;;;;;;;5010477;28;20509;-69
2022/11/19 11:18:42;;;;;;;17.55;9.32;;;;;;;;;;5001914;28;20301;-69
2022/11/19 11:21:12;;;;;;;15.75;8.52;;;;;;;;;;5002820;28;20029;-69
2022/11/19 11:23:53;;;;;;;21.73;10.50;;;;;;;;;;5010762;28;20143;-69
2022/11/19 11:26:23;;;;;;;18.02;9.32;;;;;;;;;;5011081;28;20022;-69
2022/11/19 11:28:59;;;;;;;23.20;11.20;;;;;;;;;;5009468;28;20021;-68
2022/11/19 11:31:43;;;;;;;23.33;10.70;;;;;;;;;;5003161;28;20384;-68
2022/11/19 11:34:28;;;;;;;20.92;10.68;;;;;;;;;;5004824;28;20050;-68
2022/11/19 11:36:54;;;;;;;10.93;4.07;;;;;;;;;;5010400;28;20113;-68
2022/11/19 11:39:28;;;;;;;20.52;9.77;;;;;;;;;;5005239;28;20519;-68
2022/11/19 11:41:53;;;;;;;16.85;9.02;;;;;;;;;;5010958;28;20029;-68
2022/11/19 11:44:19;;;;;;;22.80;10.20;;;;;;;;;;5011128;28;20020;-69
2022/11/19 11:46:47;;;;;;;21.20;9.95;;;;;;;;;;5010319;28;20109;-67
2022/11/19 11:49:21;;;;;;;18.63;9.88;;;;;;;;;;5010397;28;20087;-68
2022/11/19 11:51:53;;;;;;;19.55;10.30;;;;;;;;;;5004533;28;20030;-68
2022/11/19 11:54:19;;;;;;;23.27;10.20;;;;;;;;;;5002478;28;20021;-68
2022/11/19 11:56:45;;;;;;;22.42;11.07;;;;;;;;;;5005855;28;20022;-68
2022/11/19 11:59:15;;;;;;;17.58;8.27;;;;;;;;;;5010477;28;20401;-68
2022/11/19 12:01:51;;;;;;;18.20;10.07;;;;;;;;;;5010636;28;20041;-67
2022/11/19 12:04:16;;;;;;;16.73;9.45;;;;;;;;;;5010363;28;20022;-67
2022/11/19 12:07:05;;;;;;;20.35;10.27;;;;;;;;;;5009929;28;20026;-68
2022/11/19 12:09:49;;;;;;;19.02;9.43;;;;;;;;;;4995520;28;20118;-68
2022/11/19 12:12:26;;;;;;;16.77;8.77;;;;;;;;;;5010671;28;20029;-67
2022/11/19 12:14:51;;;;;;;19.27;10.32;;;;;;;;;;5010290;28;20064;-68
2022/11/19 12:17:25;;;;;;;19.10;9.43;;;;;;;;;;5010020;28;20022;-67
2022/11/19 12:20:14;;;;;;;15.88;8.10;;;;;;;;;;5010346;28;20695;-67
2022/11/19 12:22:43;;;;;;;15.43;6.27;;;;;;;;;;5011003;28;20022;-68
2022/11/19 12:25:08;;;;;;;15.85;8.40;;;;;;;;;;5014120;28;20033;-69
2022/11/19 12:27:33;;;;;;;17.77;7.80;;;;;;;;;;5013224;28;20402;-68
2022/11/19 12:30:04;;;;;;;19.58;9.10;;;;;;;;;;5002240;28;20315;-68
2022/11/19 12:32:48;;;;;;;19.13;9.60;;;;;;;;;;5023573;28;20288;-68
2022/11/19 12:35:13;;;;;;;17.17;9.13;;;;;;;;;;5007253;28;20032;-68
2022/11/19 12:37:54;;;;;;;17.88;8.73;;;;;;;;;;5007447;28;20022;-69
2022/11/19 12:40:40;;;;;;;14.90;8.15;;;;;;;;;;5009430;28;20080;-68
2022/11/19 12:43:15;;;;;;;18.65;8.60;;;;;;;;;;5009711;28;20021;-67
2022/11/19 12:45:43;;;;;;;17.98;8.77;;;;;;;;;;5011775;28;20494;-68
2022/11/19 12:48:08;;;;;;;12.18;6.07;;;;;;;;;;5013176;28;20025;-68
2022/11/19 12:50:52;;;;;;;16.03;8.33;;;;;;;;;;5013657;28;20017;-67
2022/11/19 12:53:20;;;;;;;17.92;8.98;;;;;;;;;;5013636;28;20258;-67
2022/11/19 12:55:54;;;;;;;19.38;9.10;;;;;;;;;;5008131;28;20117;-67
2022/11/19 12:58:38;;;;;;;17.17;8.82;;;;;;;;;;5004906;28;20449;-67
2022/11/19 13:01:07;;;;;;;17.05;9.15;;;;;;;;;;5012945;28;20025;-67
2022/11/19 13:03:41;;;;;;;19.23;9.25;;;;;;;;;;5012228;28;20054;-68
2022/11/19 13:06:19;;;;;;;18.13;7.57;;;;;;;;;;5014886;28;20018;-67
2022/11/19 13:08:53;;;;;;;17.40;9.00;;;;;;;;;;5008649;28;20022;-67
2022/11/19 13:11:24;;;;;;;11.07;4.93;;;;;;;;;;5003793;28;20026;-67
2022/11/19 13:13:56;;;;;;;17.85;8.43;;;;;;;;;;5012739;28;20417;-67
2022/11/19 13:16:23;;;;;;;16.83;8.07;;;;;;;;;;5012933;28;20022;-68
2022/11/19 13:18:50;;;;;;;22.15;10.32;;;;;;;;;;5009179;28;20022;-68
2022/11/19 13:21:34;;;;;;;20.42;9.02;;;;;;;;;;5010582;28;20037;-68
2022/11/19 13:24:05;;;;;;;17.58;9.75;;;;;;;;;;5010623;28;20026;-68
2022/11/19 13:26:31;;;;;;;19.48;9.15;;;;;;;;;;5007332;28;20014;-67
2022/11/19 13:29:02;;;;;;;20.23;9.93;;;;;;;;;;5014421;28;20053;-67
2022/11/19 13:31:32;;;;;;;15.82;7.18;;;;;;;;;;5024607;28;20053;-68
2022/11/19 13:34:12;;;;;;;17.95;8.85;;;;;;;;;;5005645;28;20057;-68
2022/11/19 13:36:40;;;;;;;16.05;8.52;;;;;;;;;;5012688;28;20216;-68
2022/11/19 13:39:24;;;;;;;14.80;7.55;;;;;;;;;;5012158;28;20528;-68
2022/11/19 13:44:37;;;;;;;21.73;10.35;;;;;;;;;;5008372;28;20508;-68
2022/11/19 13:47:07;;;;;;;19.67;8.45;;;;;;;;;;5008289;28;20121;-68
2022/11/19 13:49:35;;;;;;;17.37;9.13;;;;;;;;;;5011237;28;20467;-68
2022/11/19 13:52:01;;;;;;;21.67;9.18;;;;;;;;;;5010847;28;20285;-68
2022/11/19 13:54:32;;;;;;;19.67;8.88;;;;;;;;;;5005748;28;20015;-68
2022/11/19 13:56:57;;;;;;;18.52;9.63;;;;;;;;;;5008039;28;21890;-68
2022/11/19 13:59:24;;;;;;;19.98;9.13;;;;;;;;;;5012120;28;20017;-68
2022/11/19 14:01:54;;;;;;;17.50;7.95;;;;;;;;;;5007408;28;20426;-68
2022/11/19 14:04:38;;;;;;;18.63;8.77;;;;;;;;;;5007889;28;20513;-68
2022/11/19 14:07:06;;;;;;;16.55;8.20;;;;;;;;;;5008653;28;20034;-68
2022/11/19 14:09:50;;;;;;;18.95;10.20;;;;;;;;;;5011398;28;20021;-67
2022/11/19 14:12:15;;;;;;;17.67;9.25;;;;;;;;;;5009323;28;20025;-67
2022/11/19 14:26:36;;;;;;;17.02;9.52;;;;;;;;;;5002148;28;20025;-67
2022/11/19 14:29:01;;;;;;;17.63;8.75;;;;;;;;;;5005408;28;20022;-67
2022/11/19 14:31:26;;;;;;;14.68;7.85;;;;;;;;;;5008623;28;20049;-67
2022/11/19 14:34:00;;;;;;;14.70;7.80;;;;;;;;;;5010531;28;20006;-70
2022/11/19 14:36:29;;;;;;;18.40;9.23;;;;;;;;;;5009985;28;20022;-68
2022/11/19 14:39:01;;;;;;;19.17;8.32;;;;;;;;;;5006565;28;20042;-68
2022/11/19 14:41:30;;;;;;;17.25;8.25;;;;;;;;;;5006690;28;20036;-68
2022/11/19 14:44:08;;;;;;;20.97;9.70;;;;;;;;;;5009164;28;20022;-68
2022/11/19 14:46:35;;;;;;;18.08;9.57;;;;;;;;;;5006259;28;20662;-68
2022/11/19 14:49:01;;;;;;;16.40;8.57;;;;;;;;;;5005921;28;20113;-67
2022/11/19 14:51:26;;;;;;;13.00;7.07;;;;;;;;;;5005393;28;20029;-67
2022/11/19 14:53:56;;;;;;;16.33;9.00;;;;;;;;;;5007159;28;20026;-67
2022/11/19 14:56:22;;;;;;;16.17;8.50;;;;;;;;;;5006872;28;20277;-67
2022/11/19 14:58:50;;;;;;;18.63;8.85;;;;;;;;;;5005560;28;20048;-68
2022/11/19 15:01:16;;;;;;;16.25;8.60;;;;;;;;;;5009049;28;20041;-67
2022/11/19 15:03:45;;;;;;;18.33;9.60;;;;;;;;;;5007229;28;20471;-67
2022/11/19 15:06:15;;;;;;;18.00;9.27;;;;;;;;;;5008469;28;20099;-68
2022/11/19 15:09:00;;;;;;;19.95;9.60;;;;;;;;;;5008438;28;20564;-68
2022/11/19 15:11:44;;;;;;;17.17;8.77;;;;;;;;;;5004106;28;20030;-69
2022/11/19 15:14:28;;;;;;;17.10;8.77;;;;;;;;;;4998617;28;20021;-69
2022/11/19 15:16:53;;;;;;;17.15;8.80;;;;;;;;;;5000832;28;20057;-69